KSBS

Steamboat Springs / Bob Adams Field Airport

Steamboat Springs, Colorado, USA
METAR KSBS 181235Z AUTO 00000KT 10SM OVC060 M05/M07 A3014 RMK AO1 T10461070
Observed Flight Rules
Dec-18 @ 12:35 UTC (33 minutes ago) Visual Flight Rules
Visibility Clouds
10 miles
  • Overcast at 6,000' AGL
Temperatures Readings
Current -5°C / 23°F
Dewpoint -7°C / 19°F
Humidity 86%
Altimeter 30.14" Hg
Pressure 1021 hPa
Elevation 2096
METAR KSBS 181235Z AUTO 00000KT 10SM OVC060 M05/M07 A3014 RMK AO1 T10461070
Observed Flight Rules
Dec-18 @ 12:35 UTC
(33 minutes ago)
VFR
Clouds
  • Overcast at 6,000' AGL
Temperature Dewpoint
-5°C / 23°F -7°C / 19°F
Humidity Altimeter Pressure
86% 30.14" Hg 1021 hPa